createdAt,value
2023-11-13T00:02:22.102Z,5.66
2023-11-13T00:05:24.090Z,5.66
2023-11-13T00:08:26.292Z,5.63
2023-11-13T00:11:28.226Z,5.67
2023-11-13T00:14:30.519Z,5.64
2023-11-13T00:17:32.596Z,5.53
2023-11-13T00:20:34.480Z,5.57
2023-11-13T00:23:39.049Z,5.58
2023-11-13T00:26:41.052Z,5.48
2023-11-13T00:29:42.892Z,5.46
2023-11-13T00:32:44.790Z,5.44
2023-11-13T00:35:46.825Z,5.50
2023-11-13T00:38:48.776Z,5.47
2023-11-13T00:41:50.808Z,5.46
2023-11-13T00:44:52.730Z,5.49
2023-11-13T00:47:54.869Z,5.36
2023-11-13T00:50:57.336Z,5.34
2023-11-13T00:53:59.209Z,5.26
2023-11-13T00:57:01.262Z,5.25
2023-11-13T01:00:05.413Z,5.22
2023-11-13T01:03:07.621Z,5.14
2023-11-13T01:06:15.738Z,5.14
2023-11-13T01:09:17.622Z,5.14
2023-11-13T01:12:21.845Z,5.14
2023-11-13T01:15:24.199Z,5.07
2023-11-13T01:18:26.151Z,4.95
2023-11-13T01:21:28.489Z,4.91
2023-11-13T01:24:30.411Z,4.91
2023-11-13T01:27:32.375Z,4.95
2023-11-13T01:30:34.366Z,4.90
2023-11-13T01:33:36.296Z,4.87
2023-11-13T01:36:38.773Z,4.89
2023-11-13T01:39:40.776Z,4.85
2023-11-13T01:42:42.696Z,4.83
2023-11-13T01:45:45.459Z,4.87
2023-11-13T01:48:47.474Z,4.79
2023-11-13T01:51:50.693Z,4.83
2023-11-13T01:54:52.703Z,4.85
2023-11-13T01:57:54.745Z,4.62
2023-11-13T02:00:57.018Z,4.75
2023-11-13T02:03:59.101Z,4.64
2023-11-13T02:07:01.631Z,4.64
2023-11-13T02:10:06.150Z,4.64
2023-11-13T02:13:11.919Z,4.58
2023-11-13T02:16:14.155Z,4.53
2023-11-13T02:19:19.294Z,4.50
2023-11-13T02:22:21.529Z,4.55
2023-11-13T02:25:25.662Z,4.48
2023-11-13T02:28:28.294Z,4.46
2023-11-13T02:31:31.247Z,4.39
2023-11-13T02:34:33.343Z,4.44
2023-11-13T02:37:35.258Z,4.45
2023-11-13T02:40:37.099Z,4.44
2023-11-13T02:43:39.011Z,4.50
2023-11-13T02:46:41.323Z,4.47
2023-11-13T02:49:44.119Z,4.38
2023-11-13T02:52:46.398Z,4.35
2023-11-13T02:55:50.519Z,4.17
2023-11-13T02:58:52.630Z,4.14
2023-11-13T03:01:54.753Z,4.16
2023-11-13T03:04:56.854Z,4.08
2023-11-13T03:07:59.076Z,4.19
2023-11-13T03:11:01.191Z,4.11
2023-11-13T03:14:03.190Z,4.05
2023-11-13T03:17:05.599Z,4.05
2023-11-13T03:20:08.323Z,4.03
2023-11-13T03:23:10.788Z,4.00
2023-11-13T03:26:12.828Z,3.98
2023-11-13T03:29:14.825Z,4.08
2023-11-13T03:32:19.216Z,4.09
2023-11-13T03:35:21.383Z,4.05
2023-11-13T03:38:23.390Z,4.11
2023-11-13T03:41:25.931Z,4.00
2023-11-13T03:44:28.907Z,4.00
2023-11-13T03:47:30.871Z,3.90
2023-11-13T03:50:32.900Z,3.99
2023-11-13T03:53:35.882Z,4.04
2023-11-13T03:56:37.929Z,3.97
2023-11-13T03:59:39.892Z,3.96
2023-11-13T04:02:41.907Z,4.06
2023-11-13T04:05:43.897Z,4.03
2023-11-13T04:08:46.453Z,4.10
2023-11-13T04:11:48.378Z,4.17
2023-11-13T04:14:50.413Z,4.17
2023-11-13T04:17:53.045Z,4.17
2023-11-13T04:20:55.982Z,4.22
2023-11-13T04:23:57.981Z,4.19
2023-11-13T04:26:59.995Z,4.20
2023-11-13T04:30:02.201Z,4.23
2023-11-13T04:33:04.263Z,4.24
2023-11-13T04:36:07.014Z,4.30
2023-11-13T04:39:10.856Z,4.33
2023-11-13T04:42:12.967Z,4.29
2023-11-13T04:45:14.954Z,4.32
2023-11-13T04:48:16.882Z,4.36
2023-11-13T04:51:18.748Z,4.13
2023-11-13T04:54:20.759Z,4.31
2023-11-13T04:57:22.769Z,4.32
2023-11-13T05:00:24.631Z,4.21
2023-11-13T05:03:26.688Z,4.22
2023-11-13T05:06:28.683Z,4.21
2023-11-13T05:09:30.585Z,4.15
2023-11-13T05:12:32.529Z,4.16
2023-11-13T05:15:34.445Z,4.28
2023-11-13T05:18:36.745Z,4.26
2023-11-13T05:21:39.524Z,4.32
2023-11-13T05:24:42.318Z,4.40
2023-11-13T05:27:44.434Z,4.45
2023-11-13T05:30:46.336Z,4.47
2023-11-13T05:33:49.282Z,4.50
2023-11-13T05:36:51.358Z,4.48
2023-11-13T05:39:55.064Z,4.49
2023-11-13T05:42:56.995Z,4.47
2023-11-13T05:45:59.132Z,4.38
2023-11-13T05:49:01.303Z,4.34
2023-11-13T05:52:03.374Z,4.23
2023-11-13T05:55:07.005Z,4.26
2023-11-13T05:58:09.024Z,4.21
2023-11-13T06:01:11.097Z,4.01
2023-11-13T06:04:13.316Z,4.22
2023-11-13T06:07:15.587Z,4.15
2023-11-13T06:10:17.641Z,4.05
2023-11-13T06:13:19.665Z,4.08
2023-11-13T06:16:22.222Z,4.08
2023-11-13T06:19:24.866Z,4.07
2023-11-13T06:22:28.265Z,4.10
2023-11-13T06:25:30.911Z,4.13
2023-11-13T06:28:32.856Z,4.12
2023-11-13T06:31:35.794Z,4.24
2023-11-13T06:34:37.794Z,4.22
2023-11-13T06:37:42.533Z,4.33
2023-11-13T06:40:44.422Z,4.25
2023-11-13T06:43:46.826Z,4.34
2023-11-13T06:46:48.977Z,4.35
2023-11-13T06:49:51.034Z,4.44
2023-11-13T06:52:54.567Z,4.46
2023-11-13T06:55:56.535Z,4.14
2023-11-13T06:58:58.435Z,4.49
2023-11-13T07:02:01.972Z,4.64
2023-11-13T07:05:06.296Z,4.69
2023-11-13T07:08:11.131Z,4.78
2023-11-13T07:11:16.182Z,4.81
2023-11-13T07:14:18.269Z,4.81
2023-11-13T07:17:20.187Z,4.81
2023-11-13T07:20:22.885Z,4.81
2023-11-13T07:23:24.731Z,4.86
2023-11-13T07:26:27.641Z,4.78
2023-11-13T07:29:31.384Z,4.92
2023-11-13T07:32:33.453Z,4.94
2023-11-13T07:35:39.382Z,4.95
2023-11-13T07:38:44.056Z,5.01
2023-11-13T07:41:46.070Z,4.98
2023-11-13T07:44:50.940Z,4.94
2023-11-13T07:47:57.731Z,5.03
2023-11-13T07:50:59.759Z,4.99
2023-11-13T07:54:02.052Z,4.95
2023-11-13T07:57:05.360Z,5.03
2023-11-13T08:00:11.543Z,5.11
2023-11-13T08:03:17.846Z,5.13
2023-11-13T08:06:19.836Z,5.04
2023-11-13T08:09:21.989Z,5.05
2023-11-13T08:12:24.599Z,5.07
2023-11-13T08:15:26.964Z,5.00
2023-11-13T08:18:29.448Z,5.07
2023-11-13T08:21:32.653Z,5.08
2023-11-13T08:24:34.557Z,5.08
2023-11-13T08:27:39.806Z,5.29
2023-11-13T08:30:47.896Z,5.39
2023-11-13T08:33:49.831Z,5.45
2023-11-13T08:36:52.171Z,5.52
2023-11-13T08:39:54.402Z,5.59
2023-11-13T08:43:00.228Z,5.66
2023-11-13T08:46:05.418Z,5.71
2023-11-13T08:49:09.235Z,5.58
2023-11-13T08:52:11.731Z,5.66
2023-11-13T08:55:18.480Z,5.76
2023-11-13T08:58:20.711Z,5.65
2023-11-13T09:01:27.321Z,5.75
2023-11-13T09:04:29.428Z,5.78
2023-11-13T09:07:32.715Z,5.73
2023-11-13T09:10:34.732Z,5.79
2023-11-13T09:13:37.581Z,5.81
2023-11-13T09:16:42.306Z,5.78
2023-11-13T09:19:44.369Z,5.86
2023-11-13T09:22:50.223Z,5.96
2023-11-13T09:25:52.209Z,5.89
2023-11-13T09:28:56.284Z,5.97
2023-11-13T09:31:58.912Z,5.88
2023-11-13T09:35:01.108Z,5.95
2023-11-13T09:38:03.671Z,6.04
2023-11-13T09:41:10.207Z,5.99
2023-11-13T09:44:13.183Z,6.11
2023-11-13T09:47:22.807Z,6.13
2023-11-13T09:50:24.960Z,6.11
2023-11-13T09:53:30.926Z,5.88
2023-11-13T09:56:34.037Z,6.16
2023-11-13T09:59:39.087Z,6.13
2023-11-13T10:02:43.302Z,6.28
2023-11-13T10:05:45.928Z,6.36
2023-11-13T10:08:48.630Z,6.34
2023-11-13T10:11:50.916Z,6.43
2023-11-13T10:15:09.221Z,6.41
2023-11-13T10:18:14.027Z,6.63
2023-11-13T10:21:34.781Z,6.80
2023-11-13T10:24:43.986Z,6.79
2023-11-13T10:28:01.152Z,7.09
2023-11-13T10:31:06.219Z,7.30
2023-11-13T10:34:10.900Z,7.33
2023-11-13T10:37:14.696Z,7.16
2023-11-13T10:40:28.246Z,6.91
2023-11-13T10:43:35.292Z,7.32
2023-11-13T10:46:37.730Z,7.50
2023-11-13T10:49:40.820Z,7.67
2023-11-13T10:52:45.116Z,8.04
2023-11-13T10:55:48.759Z,8.19
2023-11-13T10:58:50.987Z,8.41
2023-11-13T11:01:58.794Z,8.26
2023-11-13T11:05:04.253Z,8.31
2023-11-13T11:08:06.694Z,8.23
2023-11-13T11:11:18.923Z,8.00
2023-11-13T11:14:51.341Z,8.05
2023-11-13T11:18:13.776Z,8.08
2023-11-13T11:21:36.835Z,8.10
2023-11-13T11:24:58.823Z,8.14
2023-11-13T11:28:01.155Z,8.28
2023-11-13T11:31:05.921Z,8.65
2023-11-13T11:34:08.675Z,8.91
2023-11-13T11:37:16.530Z,9.22
2023-11-13T11:40:32.587Z,9.01
2023-11-13T11:43:40.029Z,8.82
2023-11-13T11:47:00.210Z,8.87
2023-11-13T11:50:14.129Z,8.76
2023-11-13T11:53:20.608Z,8.63
2023-11-13T11:56:24.881Z,8.67
2023-11-13T11:59:28.861Z,8.86
2023-11-13T12:02:32.315Z,8.87
2023-11-13T12:05:35.230Z,8.98
2023-11-13T12:08:41.543Z,9.07
2023-11-13T12:11:44.399Z,9.00
2023-11-13T12:14:46.474Z,8.95
2023-11-13T12:17:48.570Z,9.10
2023-11-13T12:20:50.710Z,9.19
2023-11-13T12:23:54.218Z,9.06
2023-11-13T12:26:58.090Z,9.15
2023-11-13T12:30:07.453Z,9.43
2023-11-13T12:33:11.018Z,9.36
2023-11-13T12:36:14.819Z,9.43
2023-11-13T12:39:18.588Z,9.34
2023-11-13T12:42:21.385Z,9.38
2023-11-13T12:45:23.692Z,9.31
2023-11-13T12:48:25.574Z,9.28
2023-11-13T12:51:30.338Z,9.29
2023-11-13T12:54:33.497Z,9.28
2023-11-13T12:57:38.634Z,9.08
2023-11-13T13:00:42.025Z,9.09
2023-11-13T13:03:46.054Z,8.91
2023-11-13T13:06:49.938Z,8.97
2023-11-13T13:09:52.945Z,9.07
2023-11-13T13:12:55.274Z,9.10
2023-11-13T13:15:57.340Z,8.94
2023-11-13T13:18:59.992Z,8.96
2023-11-13T13:22:08.862Z,8.77
2023-11-13T13:25:12.380Z,9.07
2023-11-13T13:28:14.529Z,9.07
2023-11-13T13:31:16.893Z,8.95
2023-11-13T13:34:20.027Z,9.10
2023-11-13T13:37:24.933Z,9.06
2023-11-13T13:40:28.353Z,9.04
2023-11-13T13:43:30.634Z,9.06
2023-11-13T13:46:33.197Z,8.93
2023-11-13T13:49:35.497Z,9.01
2023-11-13T13:52:47.858Z,9.03
2023-11-13T13:55:49.824Z,9.04
2023-11-13T13:58:51.960Z,8.93
2023-11-13T14:01:53.951Z,8.95
2023-11-13T14:04:55.974Z,8.97
2023-11-13T14:07:58.090Z,8.80
2023-11-13T14:11:01.280Z,9.01
2023-11-13T14:14:03.218Z,8.77
2023-11-13T14:17:05.347Z,8.82
2023-11-13T14:20:16.841Z,8.67
2023-11-13T14:23:19.515Z,8.84
2023-11-13T14:26:21.440Z,8.85
2023-11-13T14:29:23.357Z,8.72
2023-11-13T14:32:25.507Z,8.80
2023-11-13T14:35:27.804Z,8.74
2023-11-13T14:38:31.278Z,8.84
2023-11-13T14:41:34.574Z,8.81
2023-11-13T14:44:36.999Z,8.52
2023-11-13T14:47:42.472Z,8.82
2023-11-13T14:50:45.581Z,8.82
2023-11-13T14:53:48.583Z,8.72
2023-11-13T14:56:50.453Z,8.60
2023-11-13T14:59:52.823Z,8.60
2023-11-13T15:02:54.985Z,8.57
2023-11-13T15:05:59.056Z,8.70
2023-11-13T15:09:01.652Z,8.64
2023-11-13T15:12:04.524Z,8.48
2023-11-13T15:15:09.458Z,8.07
2023-11-13T15:18:12.121Z,8.49
2023-11-13T15:21:14.516Z,8.47
2023-11-13T15:24:17.046Z,8.40
2023-11-13T15:27:21.218Z,8.30
2023-11-13T15:30:23.961Z,8.26
2023-11-13T15:33:25.955Z,8.06
2023-11-13T15:36:29.405Z,8.13
2023-11-13T15:39:31.360Z,8.07
2023-11-13T15:42:34.346Z,7.90
2023-11-13T15:45:37.367Z,8.02
2023-11-13T15:48:39.950Z,7.89
2023-11-13T15:51:42.389Z,7.88
2023-11-13T15:54:44.921Z,7.88
2023-11-13T15:57:46.925Z,7.80
2023-11-13T16:00:49.029Z,7.78
2023-11-13T16:03:51.068Z,7.53
2023-11-13T16:06:54.342Z,7.76
2023-11-13T16:09:56.349Z,7.75
2023-11-13T16:12:58.419Z,7.86
2023-11-13T16:16:00.507Z,7.77
2023-11-13T16:19:03.504Z,7.86
2023-11-13T16:22:05.668Z,7.91
2023-11-13T16:25:09.161Z,8.08
2023-11-13T16:28:11.522Z,8.20
2023-11-13T16:31:13.805Z,8.14
2023-11-13T16:34:16.106Z,8.44
2023-11-13T16:37:18.390Z,8.02
2023-11-13T16:40:21.869Z,8.49
2023-11-13T16:43:29.873Z,8.54
2023-11-13T16:46:34.377Z,8.46
2023-11-13T16:49:36.463Z,8.41
2023-11-13T16:52:39.510Z,8.49
2023-11-13T16:55:41.745Z,8.41
2023-11-13T16:58:43.654Z,8.39
2023-11-13T17:01:46.212Z,8.41
2023-11-13T17:04:48.703Z,8.29
2023-11-13T17:07:50.924Z,8.40
2023-11-13T17:10:55.861Z,8.55
2023-11-13T17:13:58.039Z,8.39
2023-11-13T17:17:00.188Z,8.61
2023-11-13T17:20:04.966Z,8.55
2023-11-13T17:23:11.826Z,8.57
2023-11-13T17:26:13.977Z,8.49
2023-11-13T17:29:15.869Z,8.36
2023-11-13T17:32:18.026Z,8.42
2023-11-13T17:35:21.512Z,8.42
2023-11-13T17:38:24.893Z,8.41
2023-11-13T17:41:27.184Z,8.45
2023-11-13T17:44:29.413Z,8.43
2023-11-13T17:47:31.670Z,8.39
2023-11-13T17:50:33.691Z,8.21
2023-11-13T17:53:35.534Z,8.28
2023-11-13T17:56:37.565Z,8.20
2023-11-13T17:59:43.030Z,8.21
2023-11-13T18:02:46.014Z,8.21
2023-11-13T18:05:49.724Z,8.11
2023-11-13T18:08:52.897Z,8.06
2023-11-13T18:11:55.714Z,7.69
2023-11-13T18:14:59.128Z,7.85
2023-11-13T18:18:02.269Z,7.80
2023-11-13T18:21:05.278Z,7.81
2023-11-13T18:24:13.131Z,7.73
2023-11-13T18:27:17.169Z,7.66
2023-11-13T18:30:20.599Z,7.58
2023-11-13T18:33:22.583Z,7.52
2023-11-13T18:36:25.599Z,7.55
2023-11-13T18:39:27.896Z,7.46
2023-11-13T18:42:30.199Z,7.46
2023-11-13T18:45:33.057Z,7.30
2023-11-13T18:48:35.066Z,7.44
2023-11-13T18:51:37.461Z,7.21
2023-11-13T18:54:39.408Z,7.32
2023-11-13T18:57:41.356Z,7.42
2023-11-13T19:00:43.697Z,7.30
2023-11-13T19:03:46.758Z,7.45
2023-11-13T19:06:49.007Z,7.34
2023-11-13T19:09:52.361Z,7.36
2023-11-13T19:12:54.525Z,7.40
2023-11-13T19:15:57.762Z,7.12
2023-11-13T19:18:59.738Z,7.23
2023-11-13T19:22:03.662Z,7.34
2023-11-13T19:25:10.169Z,7.34
2023-11-13T19:28:12.215Z,7.30
2023-11-13T19:31:14.108Z,7.34
2023-11-13T19:34:18.292Z,7.33
2023-11-13T19:37:20.956Z,7.24
2023-11-13T19:40:24.859Z,7.36
2023-11-13T19:43:26.758Z,7.30
2023-11-13T19:46:28.695Z,7.28
2023-11-13T19:49:31.576Z,7.01
2023-11-13T19:52:41.999Z,7.24
2023-11-13T19:55:49.110Z,7.11
2023-11-13T19:58:51.812Z,7.39
2023-11-13T20:01:53.991Z,7.58
2023-11-13T20:04:56.206Z,7.67
2023-11-13T20:07:59.094Z,7.78
2023-11-13T20:11:01.041Z,7.69
2023-11-13T20:14:03.227Z,7.76
2023-11-13T20:17:08.295Z,7.87
2023-11-13T20:20:11.301Z,7.90
2023-11-13T20:23:14.965Z,7.80
2023-11-13T20:26:16.905Z,7.77
2023-11-13T20:29:19.646Z,7.79
2023-11-13T20:32:21.750Z,7.75
2023-11-13T20:35:24.680Z,7.67
2023-11-13T20:38:27.849Z,7.82
2023-11-13T20:41:29.896Z,7.75
2023-11-13T20:44:31.967Z,7.68
2023-11-13T20:47:37.415Z,7.49
2023-11-13T20:50:39.912Z,7.38
2023-11-13T20:53:41.889Z,7.57
2023-11-13T20:56:45.877Z,7.46
2023-11-13T20:59:47.760Z,7.41
2023-11-13T21:02:49.815Z,7.29
2023-11-13T21:06:02.386Z,7.24
2023-11-13T21:09:09.758Z,7.32
2023-11-13T21:12:11.699Z,7.36
2023-11-13T21:15:14.122Z,7.14
2023-11-13T21:18:16.030Z,7.26
2023-11-13T21:21:17.965Z,7.29
2023-11-13T21:24:20.455Z,7.25
2023-11-13T21:27:22.340Z,7.23
2023-11-13T21:30:24.870Z,7.26
2023-11-13T21:33:26.951Z,7.22
2023-11-13T21:36:28.900Z,7.26
2023-11-13T21:39:31.351Z,7.02
2023-11-13T21:42:33.280Z,7.19
2023-11-13T21:45:35.677Z,7.16
2023-11-13T21:48:37.708Z,7.04
2023-11-13T21:51:39.597Z,7.13
2023-11-13T21:54:41.525Z,7.10
2023-11-13T21:57:43.664Z,7.09
2023-11-13T22:00:45.609Z,7.13
2023-11-13T22:03:47.696Z,7.12
2023-11-13T22:06:50.083Z,7.07
2023-11-13T22:09:51.975Z,7.06
2023-11-13T22:12:53.914Z,7.03
2023-11-13T22:15:56.989Z,7.04
2023-11-13T22:18:58.859Z,7.05
2023-11-13T22:22:00.714Z,7.07
2023-11-13T22:25:02.876Z,6.96
2023-11-13T22:28:04.874Z,7.07
2023-11-13T22:31:08.433Z,6.98
2023-11-13T22:34:10.960Z,6.94
2023-11-13T22:37:14.560Z,6.96
2023-11-13T22:40:16.526Z,6.89
2023-11-13T22:43:18.542Z,6.85
2023-11-13T22:46:21.073Z,6.70
2023-11-13T22:49:23.216Z,6.84
2023-11-13T22:52:25.243Z,6.89
2023-11-13T22:55:27.293Z,6.71
2023-11-13T22:58:29.225Z,6.88
2023-11-13T23:01:31.356Z,6.89
2023-11-13T23:04:34.741Z,6.74
2023-11-13T23:07:38.060Z,6.33
2023-11-13T23:10:40.104Z,6.78
2023-11-13T23:13:42.385Z,6.61
2023-11-13T23:17:08.562Z,6.89
2023-11-13T23:20:10.833Z,6.76
2023-11-13T23:23:12.946Z,6.78
2023-11-13T23:26:14.894Z,6.81
2023-11-13T23:29:16.817Z,6.70
2023-11-13T23:32:19.166Z,6.76
2023-11-13T23:35:21.375Z,6.65
2023-11-13T23:38:25.369Z,6.76
2023-11-13T23:41:27.291Z,6.73
2023-11-13T23:44:29.259Z,6.87
2023-11-13T23:47:34.701Z,6.77
2023-11-13T23:50:36.752Z,6.74
2023-11-13T23:53:39.242Z,6.32
2023-11-13T23:56:41.139Z,6.72
2023-11-13T23:59:44.065Z,6.68
